Time,TemperatureF,DewpointF,PressureIn,WindDirection,WindDirectionDegrees,WindSpeedMPH,WindSpeedGustMPH,Humidity,HourlyPrecipIn,Conditions,Clouds,dailyrainin,SoftwareType,DateUTC
2013-03-18 00:01:00,59.5,50.8,29.63,NNE,27,0.0,0.0,73,0.00,,,0.00,WeatherCatV1.02B3,2013-03-18 05:01:00,
2013-03-18 00:06:00,59.3,50.6,29.63,NNE,27,0.0,0.0,73,0.00,,,0.00,WeatherCatV1.02B3,2013-03-18 05:06:00,
2013-03-18 00:11:00,59.1,50.5,29.63,NNE,26,0.0,0.0,73,0.00,,,0.00,WeatherCatV1.02B3,2013-03-18 05:11:00,
2013-03-18 00:16:00,58.9,50.6,29.63,NNE,27,0.0,0.0,74,0.00,,,0.00,WeatherCatV1.02B3,2013-03-18 05:16:00,
2013-03-18 00:21:00,58.6,50.7,29.63,NNE,27,0.0,0.0,75,0.00,,,0.00,WeatherCatV1.02B3,2013-03-18 05:21:00,
2013-03-18 00:26:00,58.4,50.5,29.63,NNE,26,0.0,0.0,75,0.00,,,0.00,WeatherCatV1.02B3,2013-03-18 05:26:00,
2013-03-18 00:31:00,58.2,50.3,29.64,NNE,26,0.0,0.0,75,0.00,,,0.00,WeatherCatV1.02B3,2013-03-18 05:31:00,
2013-03-18 00:36:00,58.0,50.1,29.64,NNE,27,0.0,0.0,75,0.00,,,0.00,WeatherCatV1.02B3,2013-03-18 05:36:00,
2013-03-18 00:41:00,57.8,49.9,29.64,NNE,26,0.0,0.0,75,0.00,,,0.00,WeatherCatV1.02B3,2013-03-18 05:41:00,
2013-03-18 00:46:00,57.6,50.1,29.63,NNE,27,0.0,1.0,76,0.00,,,0.00,WeatherCatV1.02B3,2013-03-18 05:46:00,
2013-03-18 00:51:00,57.4,49.9,29.63,NNE,27,0.0,0.0,76,0.00,,,0.00,WeatherCatV1.02B3,2013-03-18 05:51:00,
2013-03-18 00:56:00,57.1,50.0,29.63,NNE,32,3.0,3.0,77,0.00,,,0.00,WeatherCatV1.02B3,2013-03-18 05:56:00,
2013-03-18 01:01:00,56.9,49.8,29.61,ENE,63,0.0,2.0,77,0.00,,,0.00,WeatherCatV1.02B3,2013-03-18 06:01:00,
2013-03-18 01:06:00,56.9,49.8,29.61,ESE,123,0.0,1.0,77,0.00,,,0.00,WeatherCatV1.02B3,2013-03-18 06:06:00,
2013-03-18 01:11:00,56.9,49.4,29.61,NE,49,0.0,6.0,76,0.00,,,0.00,WeatherCatV1.02B3,2013-03-18 06:11:00,
2013-03-18 01:16:00,56.9,49.4,29.61,NE,49,0.0,3.0,76,0.00,,,0.00,WeatherCatV1.02B3,2013-03-18 06:16:00,
2013-03-18 01:21:00,56.9,49.4,29.61,ENE,75,0.0,1.0,76,0.00,,,0.00,WeatherCatV1.02B3,2013-03-18 06:21:00,
2013-03-18 01:26:00,56.8,49.3,29.61,ENE,77,0.0,1.0,76,0.00,,,0.00,WeatherCatV1.02B3,2013-03-18 06:26:00,
2013-03-18 01:31:00,56.7,49.2,29.62,East,99,0.0,3.0,76,0.00,,,0.00,WeatherCatV1.02B3,2013-03-18 06:31:00,
2013-03-18 01:36:00,56.7,49.2,29.62,East,99,0.0,0.0,76,0.00,,,0.00,WeatherCatV1.02B3,2013-03-18 06:36:00,
2013-03-18 01:41:00,56.6,49.1,29.62,SSW,202,0.0,0.0,76,0.00,,,0.00,WeatherCatV1.02B3,2013-03-18 06:41:00,
2013-03-18 01:46:00,56.6,49.1,29.63,SSE,150,2.0,6.0,76,0.00,,,0.00,WeatherCatV1.02B3,2013-03-18 06:46:00,
2013-03-18 01:51:00,56.6,49.5,29.63,South,172,0.0,2.0,77,0.00,,,0.00,WeatherCatV1.02B3,2013-03-18 06:51:00,
2013-03-18 01:56:00,56.6,49.5,29.63,SSE,152,0.0,0.0,77,0.00,,,0.00,WeatherCatV1.02B3,2013-03-18 06:56:00,
2013-03-18 02:01:00,56.6,49.5,29.65,SE,126,0.0,3.0,77,0.00,,,0.00,WeatherCatV1.02B3,2013-03-18 07:01:00,
2013-03-18 02:06:00,56.7,49.6,29.65,SE,144,0.0,0.0,77,0.00,,,0.00,WeatherCatV1.02B3,2013-03-18 07:06:00,
2013-03-18 02:11:00,56.7,49.9,29.65,ESE,119,1.0,5.0,78,0.00,,,0.00,WeatherCatV1.02B3,2013-03-18 07:11:00,
2013-03-18 02:16:00,56.6,49.8,29.62,SE,143,0.0,5.0,78,0.00,,,0.00,WeatherCatV1.02B3,2013-03-18 07:16:00,
2013-03-18 02:21:00,56.7,49.9,29.62,SSE,148,0.0,1.0,78,0.00,,,0.00,WeatherCatV1.02B3,2013-03-18 07:21:00,
2013-03-18 02:26:00,56.8,50.0,29.62,South,184,0.0,0.0,78,0.00,,,0.00,WeatherCatV1.02B3,2013-03-18 07:26:00,
2013-03-18 02:31:00,56.9,50.5,29.66,SE,144,2.0,5.0,79,0.00,,,0.00,WeatherCatV1.02B3,2013-03-18 07:31:00,
2013-03-18 02:36:00,56.9,50.5,29.66,South,172,0.0,7.0,79,0.00,,,0.00,WeatherCatV1.02B3,2013-03-18 07:36:00,
2013-03-18 02:41:00,56.9,50.8,29.66,South,187,0.0,5.0,80,0.00,,,0.00,WeatherCatV1.02B3,2013-03-18 07:41:00,
2013-03-18 02:46:00,57.0,51.2,29.59,ESE,118,7.0,7.0,81,0.00,,,0.00,WeatherCatV1.02B3,2013-03-18 07:46:00,
2013-03-18 02:51:00,57.0,51.6,29.59,SSE,166,7.0,13.0,82,0.00,,,0.00,WeatherCatV1.02B3,2013-03-18 07:51:00,
2013-03-18 02:56:00,57.2,51.8,29.59,SSE,148,4.0,12.0,82,0.00,,,0.00,WeatherCatV1.02B3,2013-03-18 07:56:00,
2013-03-18 03:01:00,57.5,51.7,29.57,SSE,156,5.0,7.0,81,0.00,,,0.00,WeatherCatV1.02B3,2013-03-18 08:01:00,
2013-03-18 03:06:00,57.7,51.9,29.57,SE,146,3.0,12.0,81,0.00,,,0.00,WeatherCatV1.02B3,2013-03-18 08:06:00,
2013-03-18 03:11:00,57.7,51.9,29.57,SSE,167,6.0,10.0,81,0.00,,,0.00,WeatherCatV1.02B3,2013-03-18 08:11:00,
2013-03-18 03:16:00,57.7,51.6,29.56,SE,146,0.0,5.0,80,0.00,,,0.00,WeatherCatV1.02B3,2013-03-18 08:16:00,
2013-03-18 03:21:00,57.7,51.6,29.56,SSE,163,4.0,11.0,80,0.00,,,0.00,WeatherCatV1.02B3,2013-03-18 08:21:00,
2013-03-18 03:26:00,57.7,51.6,29.56,South,174,6.0,10.0,80,0.00,,,0.00,WeatherCatV1.02B3,2013-03-18 08:26:00,
2013-03-18 03:31:00,57.7,51.6,29.57,SSE,167,0.0,4.0,80,0.00,,,0.00,WeatherCatV1.02B3,2013-03-18 08:31:00,
2013-03-18 03:36:00,57.7,51.6,29.57,South,183,4.0,10.0,80,0.00,,,0.00,WeatherCatV1.02B3,2013-03-18 08:36:00,
2013-03-18 03:41:00,57.9,51.8,29.57,SSE,160,0.0,9.0,80,0.00,,,0.00,WeatherCatV1.02B3,2013-03-18 08:41:00,
2013-03-18 03:46:00,57.9,51.8,29.58,South,169,4.0,4.0,80,0.00,,,0.00,WeatherCatV1.02B3,2013-03-18 08:46:00,
2013-03-18 03:51:00,57.9,51.8,29.58,South,182,0.0,5.0,80,0.00,,,0.00,WeatherCatV1.02B3,2013-03-18 08:51:00,
2013-03-18 03:56:00,57.8,51.7,29.58,SSW,192,0.0,0.0,80,0.00,,,0.00,WeatherCatV1.02B3,2013-03-18 08:56:00,
2013-03-18 04:01:00,57.6,51.8,29.58,South,178,0.0,4.0,81,0.00,,,0.00,WeatherCatV1.02B3,2013-03-18 09:01:00,
2013-03-18 04:06:00,57.5,51.7,29.58,South,179,0.0,1.0,81,0.00,,,0.00,WeatherCatV1.02B3,2013-03-18 09:06:00,
2013-03-18 04:11:00,57.3,51.5,29.58,SSE,151,0.0,0.0,81,0.00,,,0.00,WeatherCatV1.02B3,2013-03-18 09:11:00,
2013-03-18 04:16:00,57.2,51.8,29.58,SSE,155,0.0,3.0,82,0.00,,,0.00,WeatherCatV1.02B3,2013-03-18 09:16:00,
2013-03-18 04:21:00,57.2,51.8,29.58,SSE,165,0.0,0.0,82,0.00,,,0.00,WeatherCatV1.02B3,2013-03-18 09:21:00,
2013-03-18 04:26:00,57.1,51.7,29.58,SSE,166,0.0,0.0,82,0.00,,,0.00,WeatherCatV1.02B3,2013-03-18 09:26:00,
2013-03-18 04:31:00,57.1,51.7,29.58,SSE,161,0.0,5.0,82,0.00,,,0.00,WeatherCatV1.02B3,2013-03-18 09:31:00,
2013-03-18 04:36:00,57.2,52.1,29.58,SSE,167,0.0,1.0,83,0.00,,,0.00,WeatherCatV1.02B3,2013-03-18 09:36:00,
2013-03-18 04:41:00,57.4,52.6,29.58,SSE,156,1.0,6.0,84,0.00,,,0.00,WeatherCatV1.02B3,2013-03-18 09:41:00,
2013-03-18 04:46:00,57.7,53.2,29.57,South,183,2.0,4.0,85,0.00,,,0.00,WeatherCatV1.02B3,2013-03-18 09:46:00,
2013-03-18 04:51:00,57.9,53.7,29.57,SSE,153,0.0,4.0,86,0.00,,,0.00,WeatherCatV1.02B3,2013-03-18 09:51:00,
2013-03-18 04:56:00,58.1,53.9,29.57,SSE,152,5.0,7.0,86,0.00,,,0.00,WeatherCatV1.02B3,2013-03-18 09:56:00,
2013-03-18 05:01:00,58.3,54.4,29.57,South,181,0.0,1.0,87,0.00,,,0.00,WeatherCatV1.02B3,2013-03-18 10:01:00,
2013-03-18 05:06:00,58.5,55.0,29.57,SSW,196,0.0,4.0,88,0.00,,,0.00,WeatherCatV1.02B3,2013-03-18 10:06:00,
2013-03-18 05:11:00,58.7,55.5,29.57,South,188,0.0,4.0,89,0.00,,,0.00,WeatherCatV1.02B3,2013-03-18 10:11:00,
2013-03-18 05:16:00,59.0,56.1,29.57,SSW,201,0.0,2.0,90,0.00,,,0.00,WeatherCatV1.02B3,2013-03-18 10:16:00,
2013-03-18 05:21:00,59.4,56.5,29.57,SSW,193,1.0,12.0,90,0.00,,,0.00,WeatherCatV1.02B3,2013-03-18 10:21:00,
2013-03-18 05:26:00,59.6,56.4,29.57,South,177,2.0,6.0,89,0.00,,,0.00,WeatherCatV1.02B3,2013-03-18 10:26:00,
2013-03-18 05:31:00,59.8,56.9,29.56,SSE,168,4.0,6.0,90,0.00,,,0.00,WeatherCatV1.02B3,2013-03-18 10:31:00,
2013-03-18 05:36:00,60.0,57.1,29.56,South,169,3.0,7.0,90,0.00,,,0.00,WeatherCatV1.02B3,2013-03-18 10:36:00,
2013-03-18 05:41:00,60.1,57.5,29.56,South,184,8.0,12.0,91,0.00,,,0.00,WeatherCatV1.02B3,2013-03-18 10:41:00,
2013-03-18 05:46:00,60.3,57.7,29.57,SSW,208,0.0,7.0,91,0.00,,,0.00,WeatherCatV1.02B3,2013-03-18 10:46:00,
2013-03-18 05:51:00,60.6,58.3,29.57,SSW,205,11.0,14.0,92,0.00,,,0.00,WeatherCatV1.02B3,2013-03-18 10:51:00,
2013-03-18 05:56:00,60.9,58.6,29.57,SSW,192,0.0,6.0,92,0.00,,,0.00,WeatherCatV1.02B3,2013-03-18 10:56:00,
2013-03-18 06:01:00,61.3,59.3,29.57,South,184,5.0,7.0,93,0.00,,,0.00,WeatherCatV1.02B3,2013-03-18 11:01:00,
2013-03-18 06:06:00,61.7,59.7,29.57,South,188,7.0,10.0,93,0.00,,,0.00,WeatherCatV1.02B3,2013-03-18 11:06:00,
2013-03-18 06:11:00,62.0,59.9,29.57,SSW,205,2.0,7.0,93,0.00,,,0.00,WeatherCatV1.02B3,2013-03-18 11:11:00,
2013-03-18 06:16:00,62.3,60.2,29.57,SSW,196,5.0,12.0,93,0.00,,,0.00,WeatherCatV1.02B3,2013-03-18 11:16:00,
2013-03-18 06:21:00,62.5,60.4,29.57,SSW,195,7.0,8.0,93,0.00,,,0.00,WeatherCatV1.02B3,2013-03-18 11:21:00,
2013-03-18 06:26:00,62.8,60.7,29.57,SW,217,3.0,9.0,93,0.00,,,0.00,WeatherCatV1.02B3,2013-03-18 11:26:00,
2013-03-18 06:31:00,63.0,60.9,29.58,South,170,0.0,7.0,93,0.00,,,0.00,WeatherCatV1.02B3,2013-03-18 11:31:00,
2013-03-18 06:36:00,63.3,61.2,29.58,SSW,200,0.0,12.0,93,0.00,,,0.00,WeatherCatV1.02B3,2013-03-18 11:36:00,
2013-03-18 06:41:00,63.5,61.7,29.58,South,189,0.0,9.0,94,0.00,,,0.00,WeatherCatV1.02B3,2013-03-18 11:41:00,
2013-03-18 06:46:00,63.7,61.6,29.58,South,186,7.0,13.0,93,0.00,,,0.00,WeatherCatV1.02B3,2013-03-18 11:46:00,
2013-03-18 06:51:00,63.9,61.8,29.58,SW,222,10.0,10.0,93,0.00,,,0.00,WeatherCatV1.02B3,2013-03-18 11:51:00,
2013-03-18 06:56:00,64.0,62.2,29.58,SW,219,5.0,15.0,94,0.00,,,0.00,WeatherCatV1.02B3,2013-03-18 11:56:00,
2013-03-18 07:01:00,64.3,62.2,29.58,South,181,3.0,13.0,93,0.00,,,0.00,WeatherCatV1.02B3,2013-03-18 12:01:00,
2013-03-18 07:06:00,64.5,62.4,29.58,SW,221,6.0,13.0,93,0.00,,,0.00,WeatherCatV1.02B3,2013-03-18 12:06:00,
2013-03-18 07:11:00,64.8,62.7,29.58,SW,225,4.0,13.0,93,0.00,,,0.00,WeatherCatV1.02B3,2013-03-18 12:11:00,
2013-03-18 07:16:00,65.0,62.9,29.59,SW,214,8.0,17.0,93,0.00,,,0.00,WeatherCatV1.02B3,2013-03-18 12:16:00,
2013-03-18 07:21:00,65.3,63.2,29.59,SW,221,6.0,14.0,93,0.00,,,0.00,WeatherCatV1.02B3,2013-03-18 12:21:00,
2013-03-18 07:26:00,65.5,63.4,29.59,SW,217,6.0,15.0,93,0.00,,,0.00,WeatherCatV1.02B3,2013-03-18 12:26:00,
2013-03-18 07:31:00,65.6,63.2,29.59,South,182,5.0,14.0,92,0.00,,,0.00,WeatherCatV1.02B3,2013-03-18 12:31:00,
2013-03-18 07:36:00,65.8,63.4,29.59,SW,219,6.0,11.0,92,0.00,,,0.00,WeatherCatV1.02B3,2013-03-18 12:36:00,
2013-03-18 07:41:00,65.9,63.5,29.59,SW,227,7.0,10.0,92,0.00,,,0.00,WeatherCatV1.02B3,2013-03-18 12:41:00,
2013-03-18 07:46:00,65.9,63.5,29.61,SSW,205,5.0,15.0,92,0.00,,,0.00,WeatherCatV1.02B3,2013-03-18 12:46:00,
2013-03-18 07:51:00,66.0,63.3,29.61,SSW,196,8.0,11.0,91,0.00,,,0.00,WeatherCatV1.02B3,2013-03-18 12:51:00,
2013-03-18 07:56:00,66.1,63.4,29.61,SW,236,5.0,14.0,91,0.00,,,0.00,WeatherCatV1.02B3,2013-03-18 12:56:00,
2013-03-18 08:01:00,66.2,63.5,29.62,South,188,1.0,10.0,91,0.00,,,0.00,WeatherCatV1.02B3,2013-03-18 13:01:00,
2013-03-18 08:06:00,66.3,63.6,29.62,West,276,6.0,11.0,91,0.00,,,0.00,WeatherCatV1.02B3,2013-03-18 13:06:00,
2013-03-18 08:11:00,66.3,63.6,29.62,NNW,327,3.0,11.0,91,0.00,,,0.00,WeatherCatV1.02B3,2013-03-18 13:11:00,
2013-03-18 08:16:00,66.2,62.9,29.68,WNW,297,3.0,11.0,89,0.00,,,0.00,WeatherCatV1.02B3,2013-03-18 13:16:00,
2013-03-18 08:21:00,65.9,62.6,29.68,North,5,3.0,5.0,89,0.00,,,0.00,WeatherCatV1.02B3,2013-03-18 13:21:00,
2013-03-18 08:26:00,65.7,62.7,29.68,North,355,2.0,10.0,90,0.00,,,0.00,WeatherCatV1.02B3,2013-03-18 13:26:00,
2013-03-18 08:31:00,65.4,61.4,29.69,NNE,32,5.0,10.0,87,0.00,,,0.00,WeatherCatV1.02B3,2013-03-18 13:31:00,
2013-03-18 08:37:00,64.9,60.3,29.69,NE,40,9.0,9.0,85,0.00,,,0.00,WeatherCatV1.02B3,2013-03-18 13:37:00,
2013-03-18 08:41:00,64.3,59.4,29.69,NNE,26,3.0,8.0,84,0.00,,,0.00,WeatherCatV1.02B3,2013-03-18 13:41:00,
2013-03-18 08:46:00,63.7,58.1,29.69,NNE,22,6.0,15.0,82,0.00,,,0.00,WeatherCatV1.02B3,2013-03-18 13:46:00,
2013-03-18 08:51:00,63.2,57.6,29.69,NNE,13,6.0,7.0,82,0.00,,,0.00,WeatherCatV1.02B3,2013-03-18 13:51:00,
2013-03-18 08:56:00,62.8,57.2,29.69,North,5,6.0,10.0,82,0.00,,,0.00,WeatherCatV1.02B3,2013-03-18 13:56:00,
2013-03-18 09:01:00,62.3,56.4,29.71,NNW,333,12.0,14.0,81,0.00,,,0.00,WeatherCatV1.02B3,2013-03-18 14:01:00,
2013-03-18 09:06:00,61.4,54.5,29.71,NNE,13,3.0,10.0,78,0.00,,,0.00,WeatherCatV1.02B3,2013-03-18 14:06:00,
2013-03-18 09:11:00,60.6,54.0,29.71,North,10,11.0,20.0,79,0.00,,,0.00,WeatherCatV1.02B3,2013-03-18 14:11:00,
2013-03-18 09:16:00,59.9,53.4,29.72,NNW,330,9.0,13.0,79,0.00,,,0.00,WeatherCatV1.02B3,2013-03-18 14:16:00,
2013-03-18 09:21:00,59.4,52.9,29.72,North,11,5.0,9.0,79,0.00,,,0.00,WeatherCatV1.02B3,2013-03-18 14:21:00,
2013-03-18 09:26:00,58.9,52.0,29.72,North,355,9.0,13.0,78,0.00,,,0.00,WeatherCatV1.02B3,2013-03-18 14:26:00,
2013-03-18 09:31:00,58.4,51.6,29.74,NE,53,4.0,11.0,78,0.00,,,0.00,WeatherCatV1.02B3,2013-03-18 14:31:00,
2013-03-18 09:36:00,58.0,50.8,29.74,NE,45,5.0,9.0,77,0.00,,,0.00,WeatherCatV1.02B3,2013-03-18 14:36:00,
2013-03-18 09:41:00,57.7,50.9,29.74,NNE,26,9.0,9.0,78,0.00,,,0.00,WeatherCatV1.02B3,2013-03-18 14:41:00,
2013-03-18 09:46:00,57.7,50.5,29.73,NE,45,3.0,9.0,77,0.00,,,0.00,WeatherCatV1.02B3,2013-03-18 14:46:00,
2013-03-18 09:51:00,58.0,51.2,29.73,North,5,10.0,11.0,78,0.00,,,0.00,WeatherCatV1.02B3,2013-03-18 14:51:00,
2013-03-18 09:56:00,58.4,51.2,29.73,NNE,26,3.0,5.0,77,0.00,,,0.00,WeatherCatV1.02B3,2013-03-18 14:56:00,
2013-03-18 10:01:00,58.7,51.5,29.74,North,0,6.0,11.0,77,0.00,,,0.00,WeatherCatV1.02B3,2013-03-18 15:01:00,
2013-03-18 10:06:00,59.2,51.3,29.74,NNE,29,2.0,4.0,75,0.00,,,0.00,WeatherCatV1.02B3,2013-03-18 15:06:00,
2013-03-18 10:11:00,59.5,51.6,29.74,North,355,4.0,9.0,75,0.00,,,0.00,WeatherCatV1.02B3,2013-03-18 15:11:00,
2013-03-18 10:20:00,60.2,51.5,29.76,NNE,21,11.0,11.0,73,0.00,,,0.00,WeatherCatV1.02B3,2013-03-18 15:20:00,
2013-03-18 10:25:00,60.5,51.8,29.76,North,5,9.0,13.0,73,0.00,,,0.00,WeatherCatV1.02B3,2013-03-18 15:25:00,
2013-03-18 10:30:00,60.8,51.7,29.76,North,0,3.0,9.0,72,0.00,,,0.00,WeatherCatV1.02B3,2013-03-18 15:30:00,
2013-03-18 10:35:00,61.1,51.6,29.76,NNE,32,4.0,6.0,71,0.00,,,0.00,WeatherCatV1.02B3,2013-03-18 15:35:00,
2013-03-18 10:40:00,61.7,52.2,29.76,North,355,5.0,10.0,71,0.00,,,0.00,WeatherCatV1.02B3,2013-03-18 15:40:00,
2013-03-18 10:45:00,62.3,52.0,29.76,NNE,19,2.0,7.0,69,0.00,,,0.00,WeatherCatV1.02B3,2013-03-18 15:45:00,
2013-03-18 10:50:00,62.6,51.9,29.76,NNW,331,4.0,10.0,68,0.00,,,0.00,WeatherCatV1.02B3,2013-03-18 15:50:00,
2013-03-18 10:55:00,63.0,52.3,29.76,North,355,11.0,14.0,68,0.00,,,0.00,WeatherCatV1.02B3,2013-03-18 15:55:00,
2013-03-18 11:00:00,63.4,52.6,29.78,North,350,4.0,10.0,68,0.00,,,0.00,WeatherCatV1.02B3,2013-03-18 16:00:00,
2013-03-18 11:05:00,64.0,52.4,29.78,NNE,12,11.0,13.0,66,0.00,,,0.00,WeatherCatV1.02B3,2013-03-18 16:05:00,
2013-03-18 11:10:00,64.5,52.5,29.78,North,11,5.0,7.0,65,0.00,,,0.00,WeatherCatV1.02B3,2013-03-18 16:10:00,
2013-03-18 11:15:00,65.1,53.0,29.78,NNE,19,4.0,13.0,65,0.00,,,0.00,WeatherCatV1.02B3,2013-03-18 16:15:00,
2013-03-18 11:20:00,65.7,52.3,29.78,North,0,4.0,11.0,62,0.00,,,0.00,WeatherCatV1.02B3,2013-03-18 16:20:00,
2013-03-18 11:25:00,66.0,52.6,29.78,NNE,23,9.0,9.0,62,0.00,,,0.00,WeatherCatV1.02B3,2013-03-18 16:25:00,
2013-03-18 11:30:00,66.2,52.3,29.78,NNE,30,7.0,12.0,61,0.00,,,0.00,WeatherCatV1.02B3,2013-03-18 16:30:00,
2013-03-18 11:35:00,66.6,52.7,29.78,NE,38,4.0,11.0,61,0.00,,,0.00,WeatherCatV1.02B3,2013-03-18 16:35:00,
2013-03-18 11:40:00,67.3,52.9,29.78,NNE,18,6.0,10.0,60,0.00,,,0.00,WeatherCatV1.02B3,2013-03-18 16:40:00,
2013-03-18 11:45:00,68.1,53.2,29.78,North,5,5.0,11.0,59,0.00,,,0.00,WeatherCatV1.02B3,2013-03-18 16:45:00,
2013-03-18 11:50:00,68.7,52.8,29.78,North,5,7.0,18.0,57,0.00,,,0.00,WeatherCatV1.02B3,2013-03-18 16:50:00,
2013-03-18 11:55:00,68.9,53.0,29.78,North,9,12.0,17.0,57,0.00,,,0.00,WeatherCatV1.02B3,2013-03-18 16:55:00,
2013-03-18 12:00:00,69.2,53.3,29.78,North,5,9.0,12.0,57,0.00,,,0.00,WeatherCatV1.02B3,2013-03-18 17:00:00,
2013-03-18 12:05:00,69.8,53.4,29.78,NNE,33,10.0,14.0,56,0.00,,,0.00,WeatherCatV1.02B3,2013-03-18 17:05:00,
2013-03-18 12:10:00,70.2,52.8,29.78,NNE,14,14.0,14.0,54,0.00,,,0.00,WeatherCatV1.02B3,2013-03-18 17:10:00,
2013-03-18 12:15:00,70.5,52.5,29.79,NNW,347,7.0,14.0,53,0.00,,,0.00,WeatherCatV1.02B3,2013-03-18 17:15:00,
2013-03-18 12:20:00,70.8,52.8,29.79,NW,315,9.0,13.0,53,0.00,,,0.00,WeatherCatV1.02B3,2013-03-18 17:20:00,
2013-03-18 12:25:00,71.2,52.7,29.79,NNE,15,8.0,14.0,52,0.00,,,0.00,WeatherCatV1.02B3,2013-03-18 17:25:00,
2013-03-18 12:30:00,71.6,53.5,29.79,NNW,335,4.0,10.0,53,0.00,,,0.00,WeatherCatV1.02B3,2013-03-18 17:30:00,
2013-03-18 12:35:00,71.7,52.6,29.79,NNW,339,9.0,13.0,51,0.00,,,0.00,WeatherCatV1.02B3,2013-03-18 17:35:00,
2013-03-18 12:40:00,71.5,51.9,29.79,NNW,340,14.0,17.0,50,0.00,,,0.00,WeatherCatV1.02B3,2013-03-18 17:40:00,
2013-03-18 12:45:00,71.2,51.6,29.80,NNE,13,9.0,16.0,50,0.00,,,0.00,WeatherCatV1.02B3,2013-03-18 17:45:00,
2013-03-18 12:50:00,71.3,51.1,29.80,NNE,28,3.0,11.0,49,0.00,,,0.00,WeatherCatV1.02B3,2013-03-18 17:50:00,
2013-03-18 12:55:00,71.5,51.3,29.80,NNE,30,6.0,14.0,49,0.00,,,0.00,WeatherCatV1.02B3,2013-03-18 17:55:00,
2013-03-18 13:00:00,71.7,50.9,29.80,NNE,22,3.0,11.0,48,0.00,,,0.00,WeatherCatV1.02B3,2013-03-18 18:00:00,
2013-03-18 13:05:00,71.9,50.6,29.80,North,355,5.0,14.0,47,0.00,,,0.00,WeatherCatV1.02B3,2013-03-18 18:05:00,
2013-03-18 13:10:00,71.8,50.5,29.80,North,355,6.0,12.0,47,0.00,,,0.00,WeatherCatV1.02B3,2013-03-18 18:10:00,
2013-03-18 13:15:00,72.2,50.3,29.79,NNE,26,6.0,16.0,46,0.00,,,0.00,WeatherCatV1.02B3,2013-03-18 18:15:00,
2013-03-18 13:20:00,72.2,50.8,29.79,NNE,21,9.0,13.0,47,0.00,,,0.00,WeatherCatV1.02B3,2013-03-18 18:20:00,
2013-03-18 13:25:00,72.2,50.3,29.79,NNW,331,6.0,17.0,46,0.00,,,0.00,WeatherCatV1.02B3,2013-03-18 18:25:00,
2013-03-18 13:30:00,72.2,50.3,29.80,NE,34,2.0,12.0,46,0.00,,,0.00,WeatherCatV1.02B3,2013-03-18 18:30:00,
2013-03-18 13:35:00,72.3,50.3,29.80,NNE,21,6.0,14.0,46,0.00,,,0.00,WeatherCatV1.02B3,2013-03-18 18:35:00,
2013-03-18 13:40:00,72.4,51.0,29.80,NNE,27,10.0,16.0,47,0.00,,,0.00,WeatherCatV1.02B3,2013-03-18 18:40:00,
2013-03-18 13:45:00,72.6,51.8,29.80,North,355,11.0,16.0,48,0.00,,,0.00,WeatherCatV1.02B3,2013-03-18 18:45:00,
2013-03-18 13:50:00,72.7,51.9,29.80,NNE,22,10.0,16.0,48,0.00,,,0.00,WeatherCatV1.02B3,2013-03-18 18:50:00,
2013-03-18 13:55:00,72.4,51.0,29.80,North,350,5.0,13.0,47,0.00,,,0.00,WeatherCatV1.02B3,2013-03-18 18:55:00,
2013-03-18 14:00:00,72.4,50.4,29.80,North,355,10.0,13.0,46,0.00,,,0.00,WeatherCatV1.02B3,2013-03-18 19:00:00,
2013-03-18 14:05:00,72.3,50.3,29.80,North,349,5.0,12.0,46,0.00,,,0.00,WeatherCatV1.02B3,2013-03-18 19:05:00,
2013-03-18 14:10:00,72.1,50.7,29.80,NNW,346,4.0,11.0,47,0.00,,,0.00,WeatherCatV1.02B3,2013-03-18 19:10:00,
2013-03-18 14:15:00,72.2,50.8,29.79,North,0,3.0,11.0,47,0.00,,,0.00,WeatherCatV1.02B3,2013-03-18 19:15:00,
2013-03-18 14:20:00,72.2,50.3,29.79,NNW,344,4.0,11.0,46,0.00,,,0.00,WeatherCatV1.02B3,2013-03-18 19:20:00,
2013-03-18 14:25:00,71.9,50.6,29.79,NNE,27,7.0,15.0,47,0.00,,,0.00,WeatherCatV1.02B3,2013-03-18 19:25:00,
2013-03-18 14:30:00,72.1,50.2,29.79,NE,36,4.0,10.0,46,0.00,,,0.00,WeatherCatV1.02B3,2013-03-18 19:30:00,
2013-03-18 14:35:00,72.6,51.2,29.79,NNW,346,7.0,7.0,47,0.00,,,0.00,WeatherCatV1.02B3,2013-03-18 19:35:00,
2013-03-18 14:40:00,72.8,51.4,29.79,NNW,345,9.0,11.0,47,0.00,,,0.00,WeatherCatV1.02B3,2013-03-18 19:40:00,
2013-03-18 14:45:00,73.1,51.1,29.79,North,5,5.0,8.0,46,0.00,,,0.00,WeatherCatV1.02B3,2013-03-18 19:45:00,
2013-03-18 14:50:00,73.1,51.1,29.79,NNW,336,4.0,12.0,46,0.00,,,0.00,WeatherCatV1.02B3,2013-03-18 19:50:00,
2013-03-18 14:55:00,73.1,50.5,29.79,North,355,7.0,11.0,45,0.00,,,0.00,WeatherCatV1.02B3,2013-03-18 19:55:00,
2013-03-18 15:00:00,73.0,50.4,29.78,NNW,344,0.0,14.0,45,0.00,,,0.00,WeatherCatV1.02B3,2013-03-18 20:00:00,
2013-03-18 15:05:00,73.0,50.4,29.78,North,0,16.0,16.0,45,0.00,,,0.00,WeatherCatV1.02B3,2013-03-18 20:05:00,
2013-03-18 15:10:00,73.2,50.6,29.78,NNW,335,5.0,12.0,45,0.00,,,0.00,WeatherCatV1.02B3,2013-03-18 20:10:00,
2013-03-18 15:15:00,73.4,50.8,29.78,NNW,344,3.0,13.0,45,0.00,,,0.00,WeatherCatV1.02B3,2013-03-18 20:15:00,
2013-03-18 15:20:00,73.6,50.9,29.78,NNE,27,7.0,16.0,45,0.00,,,0.00,WeatherCatV1.02B3,2013-03-18 20:20:00,
2013-03-18 15:25:00,73.5,50.8,29.78,NNW,333,6.0,11.0,45,0.00,,,0.00,WeatherCatV1.02B3,2013-03-18 20:25:00,
2013-03-18 15:30:00,73.5,50.8,29.78,North,355,4.0,11.0,45,0.00,,,0.00,WeatherCatV1.02B3,2013-03-18 20:30:00,
2013-03-18 15:35:00,73.6,50.3,29.78,North,0,3.0,12.0,44,0.00,,,0.00,WeatherCatV1.02B3,2013-03-18 20:35:00,
2013-03-18 15:40:00,73.7,50.4,29.78,NNW,331,4.0,11.0,44,0.00,,,0.00,WeatherCatV1.02B3,2013-03-18 20:40:00,
2013-03-18 15:45:00,73.5,50.2,29.78,North,351,5.0,13.0,44,0.00,,,0.00,WeatherCatV1.02B3,2013-03-18 20:45:00,
2013-03-18 15:50:00,73.5,50.8,29.78,North,355,5.0,10.0,45,0.00,,,0.00,WeatherCatV1.02B3,2013-03-18 20:50:00,
2013-03-18 15:55:00,73.5,50.2,29.78,North,355,9.0,13.0,44,0.00,,,0.00,WeatherCatV1.02B3,2013-03-18 20:55:00,
2013-03-18 16:00:00,73.6,50.9,29.78,North,355,0.0,8.0,45,0.00,,,0.00,WeatherCatV1.02B3,2013-03-18 21:00:00,
2013-03-18 16:05:00,73.9,50.6,29.78,NNE,33,6.0,13.0,44,0.00,,,0.00,WeatherCatV1.02B3,2013-03-18 21:05:00,
2013-03-18 16:10:00,74.0,50.7,29.78,NNW,340,4.0,11.0,44,0.00,,,0.00,WeatherCatV1.02B3,2013-03-18 21:10:00,
2013-03-18 16:15:00,74.0,50.1,29.79,NNE,30,3.0,8.0,43,0.00,,,0.00,WeatherCatV1.02B3,2013-03-18 21:15:00,
2013-03-18 16:20:00,74.3,50.3,29.79,NNE,27,9.0,11.0,43,0.00,,,0.00,WeatherCatV1.02B3,2013-03-18 21:20:00,
2013-03-18 16:25:00,74.4,49.8,29.79,North,11,6.0,15.0,42,0.00,,,0.00,WeatherCatV1.02B3,2013-03-18 21:25:00,
2013-03-18 16:30:00,74.6,49.3,29.80,North,355,7.0,12.0,41,0.00,,,0.00,WeatherCatV1.02B3,2013-03-18 21:30:00,
2013-03-18 16:35:00,74.1,49.5,29.80,North,5,6.0,12.0,42,0.00,,,0.00,WeatherCatV1.02B3,2013-03-18 21:35:00,
2013-03-18 16:40:00,73.7,49.2,29.80,NNE,21,6.0,11.0,42,0.00,,,0.00,WeatherCatV1.02B3,2013-03-18 21:40:00,
2013-03-18 16:45:00,73.3,49.4,29.80,North,5,8.0,10.0,43,0.00,,,0.00,WeatherCatV1.02B3,2013-03-18 21:45:00,
2013-03-18 16:50:00,73.1,49.9,29.80,NNW,348,2.0,8.0,44,0.00,,,0.00,WeatherCatV1.02B3,2013-03-18 21:50:00,
2013-03-18 16:55:00,73.3,50.1,29.80,NNW,342,3.0,14.0,44,0.00,,,0.00,WeatherCatV1.02B3,2013-03-18 21:55:00,
2013-03-18 17:00:00,73.3,50.1,29.81,NNW,347,5.0,12.0,44,0.00,,,0.00,WeatherCatV1.02B3,2013-03-18 22:00:00,
2013-03-18 17:05:00,73.5,49.6,29.81,North,350,4.0,13.0,43,0.00,,,0.00,WeatherCatV1.02B3,2013-03-18 22:05:00,
2013-03-18 17:10:00,73.4,49.5,29.81,NNW,345,6.0,10.0,43,0.00,,,0.00,WeatherCatV1.02B3,2013-03-18 22:10:00,
2013-03-18 17:15:00,73.3,48.8,29.81,North,0,6.0,7.0,42,0.00,,,0.00,WeatherCatV1.02B3,2013-03-18 22:15:00,
2013-03-18 17:20:00,73.1,49.3,29.81,North,5,2.0,6.0,43,0.00,,,0.00,WeatherCatV1.02B3,2013-03-18 22:20:00,
2013-03-18 17:25:00,73.0,49.2,29.81,North,5,6.0,9.0,43,0.00,,,0.00,WeatherCatV1.02B3,2013-03-18 22:25:00,
2013-03-18 17:30:00,72.4,48.0,29.82,North,0,7.0,11.0,42,0.00,,,0.00,WeatherCatV1.02B3,2013-03-18 22:30:00,
2013-03-18 17:35:00,72.0,47.6,29.82,NNE,22,5.0,12.0,42,0.00,,,0.00,WeatherCatV1.02B3,2013-03-18 22:35:00,
2013-03-18 17:40:00,71.4,47.1,29.82,NNE,26,5.0,11.0,42,0.00,,,0.00,WeatherCatV1.02B3,2013-03-18 22:40:00,
2013-03-18 17:45:00,70.9,47.9,29.82,NNE,22,3.0,9.0,44,0.00,,,0.00,WeatherCatV1.02B3,2013-03-18 22:45:00,
2013-03-18 17:50:00,70.7,47.7,29.82,NE,35,5.0,12.0,44,0.00,,,0.00,WeatherCatV1.02B3,2013-03-18 22:50:00,
2013-03-18 17:55:00,70.5,47.5,29.82,NNE,26,3.0,4.0,44,0.00,,,0.00,WeatherCatV1.02B3,2013-03-18 22:55:00,
2013-03-18 18:00:00,70.3,47.3,29.82,NE,44,3.0,7.0,44,0.00,,,0.00,WeatherCatV1.02B3,2013-03-18 23:00:00,
2013-03-18 18:05:00,70.1,47.2,29.82,NNE,33,2.0,10.0,44,0.00,,,0.00,WeatherCatV1.02B3,2013-03-18 23:05:00,
2013-03-18 18:10:00,69.8,47.5,29.82,NNE,31,5.0,12.0,45,0.00,,,0.00,WeatherCatV1.02B3,2013-03-18 23:10:00,
2013-03-18 18:15:00,69.6,47.9,29.83,North,0,5.0,7.0,46,0.00,,,0.00,WeatherCatV1.02B3,2013-03-18 23:15:00,
2013-03-18 18:20:00,69.5,47.8,29.83,NNE,24,8.0,11.0,46,0.00,,,0.00,WeatherCatV1.02B3,2013-03-18 23:20:00,
2013-03-18 18:25:00,69.4,47.7,29.83,NNE,30,0.0,3.0,46,0.00,,,0.00,WeatherCatV1.02B3,2013-03-18 23:25:00,
2013-03-18 18:30:00,69.3,47.6,29.83,NE,34,0.0,1.0,46,0.00,,,0.00,WeatherCatV1.02B3,2013-03-18 23:30:00,
2013-03-18 18:35:00,69.1,47.4,29.83,NE,35,3.0,8.0,46,0.00,,,0.00,WeatherCatV1.02B3,2013-03-18 23:35:00,
2013-03-18 18:40:00,69.0,47.3,29.83,NE,40,1.0,9.0,46,0.00,,,0.00,WeatherCatV1.02B3,2013-03-18 23:40:00,
2013-03-18 18:45:00,68.8,47.2,29.83,NNE,19,4.0,6.0,46,0.00,,,0.00,WeatherCatV1.02B3,2013-03-18 23:45:00,
2013-03-18 18:50:00,68.6,46.4,29.83,NE,51,9.0,9.0,45,0.00,,,0.00,WeatherCatV1.02B3,2013-03-18 23:50:00,
2013-03-18 18:55:00,68.2,45.4,29.83,NE,34,1.0,10.0,44,0.00,,,0.00,WeatherCatV1.02B3,2013-03-18 23:55:00,
2013-03-18 19:00:00,67.9,45.2,29.83,NNE,31,5.0,10.0,44,0.00,,,0.00,WeatherCatV1.02B3,2013-03-19 00:00:00,
2013-03-18 19:05:00,67.6,45.5,29.83,NE,35,4.0,7.0,45,0.00,,,0.00,WeatherCatV1.02B3,2013-03-19 00:05:00,
2013-03-18 19:10:00,67.4,45.3,29.83,NE,40,5.0,7.0,45,0.00,,,0.00,WeatherCatV1.02B3,2013-03-19 00:10:00,
2013-03-18 19:15:00,67.1,45.6,29.83,NE,42,10.0,10.0,46,0.00,,,0.00,WeatherCatV1.02B3,2013-03-19 00:15:00,
2013-03-18 19:20:00,66.8,45.3,29.83,NE,35,2.0,6.0,46,0.00,,,0.00,WeatherCatV1.02B3,2013-03-19 00:20:00,
2013-03-18 19:25:00,66.6,45.7,29.83,NE,39,3.0,5.0,47,0.00,,,0.00,WeatherCatV1.02B3,2013-03-19 00:25:00,
2013-03-18 19:30:00,66.3,45.5,29.84,NE,47,0.0,4.0,47,0.00,,,0.00,WeatherCatV1.02B3,2013-03-19 00:30:00,
2013-03-18 19:35:00,66.0,45.2,29.84,NE,40,2.0,5.0,47,0.00,,,0.00,WeatherCatV1.02B3,2013-03-19 00:35:00,
2013-03-18 19:40:00,65.8,45.6,29.84,NNE,32,2.0,5.0,48,0.00,,,0.00,WeatherCatV1.02B3,2013-03-19 00:40:00,
2013-03-18 19:45:00,65.5,45.8,29.85,NNE,32,6.0,7.0,49,0.00,,,0.00,WeatherCatV1.02B3,2013-03-19 00:45:00,
2013-03-18 19:50:00,65.3,45.6,29.85,NNE,13,3.0,6.0,49,0.00,,,0.00,WeatherCatV1.02B3,2013-03-19 00:50:00,
2013-03-18 19:55:00,65.0,45.4,29.85,NE,35,4.0,10.0,49,0.00,,,0.00,WeatherCatV1.02B3,2013-03-19 00:55:00,
2013-03-18 20:00:00,64.9,45.8,29.86,NNE,17,3.0,7.0,50,0.00,,,0.00,WeatherCatV1.02B3,2013-03-19 01:00:00,
2013-03-18 20:05:00,64.7,45.6,29.86,North,5,3.0,9.0,50,0.00,,,0.00,WeatherCatV1.02B3,2013-03-19 01:05:00,
2013-03-18 20:10:00,64.6,46.1,29.86,NNE,30,2.0,5.0,51,0.00,,,0.00,WeatherCatV1.02B3,2013-03-19 01:10:00,
2013-03-18 20:15:00,64.4,45.9,29.88,NNE,19,3.0,6.0,51,0.00,,,0.00,WeatherCatV1.02B3,2013-03-19 01:15:00,
2013-03-18 20:20:00,64.2,45.7,29.88,North,11,5.0,5.0,51,0.00,,,0.00,WeatherCatV1.02B3,2013-03-19 01:20:00,
2013-03-18 20:25:00,64.0,46.0,29.88,NNE,18,3.0,6.0,52,0.00,,,0.00,WeatherCatV1.02B3,2013-03-19 01:25:00,
2013-03-18 20:30:00,63.8,46.3,29.89,NNE,12,2.0,6.0,53,0.00,,,0.00,WeatherCatV1.02B3,2013-03-19 01:30:00,
2013-03-18 20:35:00,63.7,47.2,29.89,NNE,15,2.0,5.0,55,0.00,,,0.00,WeatherCatV1.02B3,2013-03-19 01:35:00,
2013-03-18 20:40:00,63.5,48.0,29.89,North,10,2.0,7.0,57,0.00,,,0.00,WeatherCatV1.02B3,2013-03-19 01:40:00,
2013-03-18 20:45:00,63.3,47.8,29.89,North,11,3.0,7.0,57,0.00,,,0.00,WeatherCatV1.02B3,2013-03-19 01:45:00,
2013-03-18 20:50:00,63.1,47.6,29.89,NNE,32,4.0,6.0,57,0.00,,,0.00,WeatherCatV1.02B3,2013-03-19 01:50:00,
2013-03-18 20:55:00,62.9,47.0,29.89,NNE,26,3.0,6.0,56,0.00,,,0.00,WeatherCatV1.02B3,2013-03-19 01:55:00,
2013-03-18 21:00:00,62.7,45.8,29.90,NNE,27,5.0,11.0,54,0.00,,,0.00,WeatherCatV1.02B3,2013-03-19 02:00:00,
2013-03-18 21:05:00,62.5,45.1,29.90,NNE,19,5.0,11.0,53,0.00,,,0.00,WeatherCatV1.02B3,2013-03-19 02:05:00,
2013-03-18 21:10:00,62.3,44.9,29.90,NE,34,4.0,5.0,53,0.00,,,0.00,WeatherCatV1.02B3,2013-03-19 02:10:00,
2013-03-18 21:15:00,62.2,44.4,29.91,NE,44,5.0,7.0,52,0.00,,,0.00,WeatherCatV1.02B3,2013-03-19 02:15:00,
2013-03-18 21:20:00,62.0,44.2,29.91,NE,38,6.0,11.0,52,0.00,,,0.00,WeatherCatV1.02B3,2013-03-19 02:20:00,
2013-03-18 21:25:00,61.8,44.0,29.91,NNE,15,4.0,5.0,52,0.00,,,0.00,WeatherCatV1.02B3,2013-03-19 02:25:00,
2013-03-18 21:30:00,61.6,43.8,29.91,NE,34,3.0,5.0,52,0.00,,,0.00,WeatherCatV1.02B3,2013-03-19 02:30:00,
2013-03-18 21:35:00,61.4,44.1,29.91,NE,51,2.0,5.0,53,0.00,,,0.00,WeatherCatV1.02B3,2013-03-19 02:35:00,
2013-03-18 21:40:00,61.1,43.3,29.91,ENE,65,2.0,6.0,52,0.00,,,0.00,WeatherCatV1.02B3,2013-03-19 02:40:00,
2013-03-18 21:45:00,60.9,43.2,29.92,NE,35,3.0,8.0,52,0.00,,,0.00,WeatherCatV1.02B3,2013-03-19 02:45:00,
2013-03-18 21:50:00,60.7,43.5,29.92,NE,42,3.0,5.0,53,0.00,,,0.00,WeatherCatV1.02B3,2013-03-19 02:50:00,
2013-03-18 21:55:00,60.4,42.7,29.92,ENE,61,4.0,9.0,52,0.00,,,0.00,WeatherCatV1.02B3,2013-03-19 02:55:00,
2013-03-18 22:00:00,60.1,41.9,29.93,NE,48,5.0,11.0,51,0.00,,,0.00,WeatherCatV1.02B3,2013-03-19 03:00:00,
2013-03-18 22:05:00,59.7,41.5,29.93,ENE,60,3.0,10.0,51,0.00,,,0.00,WeatherCatV1.02B3,2013-03-19 03:05:00,
2013-03-18 22:10:00,59.4,41.3,29.93,NE,44,3.0,8.0,51,0.00,,,0.00,WeatherCatV1.02B3,2013-03-19 03:10:00,
2013-03-18 22:15:00,59.0,40.9,29.93,NE,55,4.0,6.0,51,0.00,,,0.00,WeatherCatV1.02B3,2013-03-19 03:15:00,
2013-03-18 22:20:00,58.7,40.1,29.93,NE,40,3.0,5.0,50,0.00,,,0.00,WeatherCatV1.02B3,2013-03-19 03:20:00,
2013-03-18 22:25:00,58.4,39.3,29.93,ENE,65,4.0,6.0,49,0.00,,,0.00,WeatherCatV1.02B3,2013-03-19 03:25:00,
2013-03-18 22:30:00,58.2,39.1,29.93,NE,38,3.0,7.0,49,0.00,,,0.00,WeatherCatV1.02B3,2013-03-19 03:30:00,
2013-03-18 22:35:00,58.0,38.9,29.93,ENE,59,5.0,7.0,49,0.00,,,0.00,WeatherCatV1.02B3,2013-03-19 03:35:00,
2013-03-18 22:40:00,57.8,38.8,29.93,ENE,65,2.0,6.0,49,0.00,,,0.00,WeatherCatV1.02B3,2013-03-19 03:40:00,
2013-03-18 22:45:00,57.6,38.6,29.93,NNE,18,3.0,4.0,49,0.00,,,0.00,WeatherCatV1.02B3,2013-03-19 03:45:00,
2013-03-18 22:50:00,57.5,38.5,29.93,NE,50,4.0,6.0,49,0.00,,,0.00,WeatherCatV1.02B3,2013-03-19 03:50:00,
2013-03-18 22:55:00,57.3,38.8,29.93,ENE,73,4.0,7.0,50,0.00,,,0.00,WeatherCatV1.02B3,2013-03-19 03:55:00,
2013-03-18 23:00:00,57.0,39.1,29.93,North,0,0.0,7.0,51,0.00,,,0.00,WeatherCatV1.02B3,2013-03-19 04:00:00,
2013-03-18 23:01:00,56.9,39.0,29.93,East,85,0.0,4.0,51,0.00,,,0.00,WeatherCatV1.02B3,2013-03-19 04:01:00,
2013-03-18 23:06:00,56.7,39.3,29.93,NE,44,0.0,5.0,52,0.00,,,0.00,WeatherCatV1.02B3,2013-03-19 04:06:00,
2013-03-18 23:11:00,56.4,39.0,29.93,NE,51,5.0,5.0,52,0.00,,,0.00,WeatherCatV1.02B3,2013-03-19 04:11:00,
2013-03-18 23:16:00,56.1,39.2,29.93,East,82,0.0,5.0,53,0.00,,,0.00,WeatherCatV1.02B3,2013-03-19 04:16:00,
2013-03-18 23:21:00,55.9,39.0,29.93,NE,38,0.0,5.0,53,0.00,,,0.00,WeatherCatV1.02B3,2013-03-19 04:21:00,
2013-03-18 23:26:00,55.6,39.2,29.93,ENE,61,2.0,6.0,54,0.00,,,0.00,WeatherCatV1.02B3,2013-03-19 04:26:00,
2013-03-18 23:31:00,55.3,39.4,29.94,NE,49,1.0,3.0,55,0.00,,,0.00,WeatherCatV1.02B3,2013-03-19 04:31:00,
2013-03-18 23:36:00,55.0,39.1,29.94,ESE,108,3.0,6.0,55,0.00,,,0.00,WeatherCatV1.02B3,2013-03-19 04:36:00,
2013-03-18 23:41:00,54.8,38.5,29.94,East,83,3.0,5.0,54,0.00,,,0.00,WeatherCatV1.02B3,2013-03-19 04:41:00,
2013-03-18 23:46:00,54.6,38.8,29.94,NE,49,3.0,5.0,55,0.00,,,0.00,WeatherCatV1.02B3,2013-03-19 04:46:00,
2013-03-18 23:51:00,54.4,39.0,29.94,ENE,76,1.0,3.0,56,0.00,,,0.00,WeatherCatV1.02B3,2013-03-19 04:51:00,
2013-03-18 23:56:00,54.1,38.8,29.94,ENE,74,0.0,4.0,56,0.00,,,0.00,WeatherCatV1.02B3,2013-03-19 04:56:00,